createdAt,value
2023-04-25T00:02:05.046Z,100804.78
2023-04-25T00:04:52.622Z,100791.38
2023-04-25T00:07:19.865Z,100829.28
2023-04-25T00:09:53.227Z,100831.16
2023-04-25T00:12:26.259Z,100827.00
2023-04-25T00:14:54.012Z,100832.50
2023-04-25T00:17:27.279Z,100836.38
2023-04-25T00:19:54.084Z,100849.03
2023-04-25T00:22:27.228Z,100848.38
2023-04-25T00:24:54.770Z,100857.44
2023-04-25T00:27:28.301Z,100849.59
2023-04-25T00:30:01.252Z,100842.00
2023-04-25T00:32:34.288Z,100847.56
2023-04-25T00:35:01.196Z,100844.25
2023-04-25T00:37:34.244Z,100851.53
2023-04-25T00:40:07.289Z,100856.91
2023-04-25T00:42:34.119Z,100846.59
2023-04-25T00:45:08.309Z,100851.22
2023-04-25T00:47:37.160Z,100858.50
2023-04-25T00:50:10.332Z,100852.53
2023-04-25T00:52:41.251Z,100857.16
2023-04-25T00:55:15.281Z,100856.47
2023-04-25T00:57:42.958Z,100856.59
2023-04-25T01:00:18.272Z,100860.19
2023-04-25T01:02:53.362Z,100862.22
2023-04-25T01:05:33.265Z,100853.63
2023-04-25T01:08:07.293Z,100861.66
2023-04-25T01:10:40.376Z,100850.59
2023-04-25T01:13:07.171Z,100859.47
2023-04-25T01:15:40.325Z,100857.94
2023-04-25T01:18:14.310Z,100864.44
2023-04-25T01:20:49.388Z,100872.59
2023-04-25T01:23:16.399Z,100864.09
2023-04-25T01:25:50.449Z,100851.50
2023-04-25T01:28:18.120Z,100880.13
2023-04-25T01:30:45.624Z,100881.25
2023-04-25T01:33:21.273Z,100866.59
2023-04-25T01:35:48.716Z,100869.06
2023-04-25T01:38:22.359Z,100870.38
2023-04-25T01:40:52.335Z,100871.88
2023-04-25T01:43:26.230Z,100877.00
2023-04-25T01:45:53.870Z,100868.97
2023-04-25T01:48:20.983Z,100871.44
2023-04-25T01:50:54.315Z,100872.41
2023-04-25T01:53:27.271Z,100870.69
2023-04-25T01:55:54.195Z,100877.59
2023-04-25T01:58:27.258Z,100876.72
2023-04-25T02:00:54.201Z,100882.88
2023-04-25T02:03:27.417Z,100889.94
2023-04-25T02:06:07.245Z,100891.66
2023-04-25T02:08:40.824Z,100896.09
2023-04-25T02:11:14.260Z,100894.34
2023-04-25T02:13:41.032Z,100889.06
2023-04-25T02:16:14.432Z,100889.94
2023-04-25T02:18:48.314Z,100897.88
2023-04-25T02:21:21.284Z,100891.72
2023-04-25T02:23:56.253Z,100901.59
2023-04-25T02:26:31.296Z,100898.03
2023-04-25T02:29:05.310Z,100903.25
2023-04-25T02:31:32.195Z,100907.75
2023-04-25T02:34:05.258Z,100904.34
2023-04-25T02:36:42.332Z,100914.91
2023-04-25T02:39:09.133Z,100919.38
2023-04-25T02:41:42.322Z,100918.59
2023-04-25T02:44:15.366Z,100917.91
2023-04-25T02:46:48.365Z,100930.94
2023-04-25T02:49:21.260Z,100923.09
2023-04-25T02:51:47.926Z,100928.47
2023-04-25T02:54:21.291Z,100933.75
2023-04-25T02:56:54.321Z,100935.63
2023-04-25T02:59:27.261Z,100936.56
2023-04-25T03:02:00.330Z,100942.59
2023-04-25T03:04:33.349Z,100945.53
2023-04-25T03:07:06.648Z,100941.25
2023-04-25T03:09:47.350Z,100944.25
2023-04-25T03:12:20.409Z,100945.16
2023-04-25T03:14:47.317Z,100942.59
2023-04-25T03:17:20.408Z,100940.16
2023-04-25T03:19:53.308Z,100942.00
2023-04-25T03:22:26.282Z,100947.22
2023-04-25T03:24:53.036Z,100947.38
2023-04-25T03:27:26.345Z,100939.59
2023-04-25T03:29:53.233Z,100939.00
2023-04-25T03:32:26.300Z,100952.06
2023-04-25T03:34:53.124Z,100952.22
2023-04-25T03:37:29.390Z,100940.97
2023-04-25T03:40:02.329Z,100953.84
2023-04-25T03:42:29.074Z,100946.06
2023-04-25T03:45:02.311Z,100940.38
2023-04-25T03:47:29.170Z,100960.13
2023-04-25T03:50:02.308Z,100958.44
2023-04-25T03:52:29.114Z,100962.78
2023-04-25T03:55:02.382Z,100961.91
2023-04-25T03:57:29.328Z,100964.72
2023-04-25T04:00:02.335Z,100978.63
2023-04-25T04:02:29.323Z,100978.63
2023-04-25T04:05:04.677Z,100975.19
2023-04-25T04:07:41.634Z,100976.06
2023-04-25T04:10:15.423Z,100973.50
2023-04-25T04:12:42.255Z,100988.41
2023-04-25T04:15:16.403Z,100994.47
2023-04-25T04:17:49.406Z,100985.84
2023-04-25T04:20:16.587Z,100981.44
2023-04-25T04:22:50.432Z,100983.13
2023-04-25T04:25:17.364Z,100966.09
2023-04-25T04:27:52.381Z,100975.47
2023-04-25T04:30:25.386Z,100979.09
2023-04-25T04:32:59.491Z,100979.28
2023-04-25T04:35:26.503Z,101000.78
2023-04-25T04:37:59.353Z,100992.00
2023-04-25T04:40:26.834Z,101005.09
2023-04-25T04:43:01.300Z,101005.97
2023-04-25T04:45:28.830Z,101011.16
2023-04-25T04:47:56.541Z,101010.22
2023-04-25T04:50:30.391Z,101012.81
2023-04-25T04:52:57.270Z,101003.56
2023-04-25T04:55:37.372Z,101018.91
2023-04-25T04:58:04.401Z,101025.81
2023-04-25T05:00:40.475Z,101024.09
2023-04-25T05:03:07.651Z,101025.81
2023-04-25T05:05:44.101Z,101031.88
2023-04-25T05:08:24.422Z,101031.97
2023-04-25T05:10:51.708Z,101035.34
2023-04-25T05:13:25.623Z,101034.25
2023-04-25T05:15:53.338Z,101036.81
2023-04-25T05:18:29.439Z,101042.09
2023-04-25T05:21:03.556Z,101045.53
2023-04-25T05:23:48.478Z,101046.38
2023-04-25T05:26:21.373Z,101047.84
2023-04-25T05:28:48.096Z,101053.81
2023-04-25T05:31:21.371Z,101057.28
2023-04-25T05:33:54.337Z,101057.97
2023-04-25T05:36:35.348Z,101056.88
2023-04-25T05:39:02.010Z,101056.78
2023-04-25T05:41:35.464Z,101066.03
2023-04-25T05:44:08.393Z,101070.06
2023-04-25T05:46:35.265Z,101079.41
2023-04-25T05:49:08.385Z,101071.66
2023-04-25T05:51:41.728Z,101069.97
2023-04-25T05:54:08.564Z,101086.25
2023-04-25T05:56:42.321Z,101079.16
2023-04-25T05:59:09.165Z,101081.63
2023-04-25T06:01:42.442Z,101088.56
2023-04-25T06:04:09.389Z,101088.56
2023-04-25T06:06:49.433Z,101098.53
2023-04-25T06:09:16.325Z,101104.44
2023-04-25T06:11:49.413Z,101103.31
2023-04-25T06:14:16.419Z,101103.91
2023-04-25T06:16:49.388Z,101106.38
2023-04-25T06:19:16.048Z,101107.84
2023-04-25T06:21:51.373Z,101108.78
2023-04-25T06:24:24.461Z,101116.44
2023-04-25T06:26:51.519Z,101118.09
2023-04-25T06:29:24.378Z,101120.38
2023-04-25T06:31:51.532Z,101122.88
2023-04-25T06:34:25.448Z,101121.66
2023-04-25T06:36:52.260Z,101136.31
2023-04-25T06:39:25.446Z,101115.34
2023-04-25T06:41:52.442Z,101125.16
2023-04-25T06:44:26.455Z,101128.41
2023-04-25T06:46:53.446Z,101120.63
2023-04-25T06:49:26.382Z,101126.69
2023-04-25T06:51:53.335Z,101133.09
2023-04-25T06:54:20.111Z,101134.13
2023-04-25T06:56:53.363Z,101146.94
2023-04-25T06:59:20.246Z,101150.66
2023-04-25T07:01:53.414Z,101149.28
2023-04-25T07:04:21.057Z,101148.16
2023-04-25T07:07:01.384Z,101151.41
2023-04-25T07:09:28.201Z,101149.41
2023-04-25T07:12:01.415Z,101149.31
2023-04-25T07:14:28.750Z,101134.75
2023-04-25T07:17:04.426Z,101148.66
2023-04-25T07:19:31.336Z,101134.84
2023-04-25T07:22:04.426Z,101144.13
2023-04-25T07:24:31.369Z,101140.13
2023-04-25T07:27:05.375Z,101144.56
2023-04-25T07:29:33.105Z,101145.44
2023-04-25T07:32:06.638Z,101156.16
2023-04-25T07:34:33.882Z,101152.22
2023-04-25T07:37:07.493Z,101151.38
2023-04-25T07:39:40.509Z,101134.22
2023-04-25T07:42:09.358Z,101143.50
2023-04-25T07:44:46.482Z,101163.78
2023-04-25T07:47:13.345Z,101168.31
2023-04-25T07:49:47.449Z,101155.06
2023-04-25T07:52:14.499Z,101175.06
2023-04-25T07:54:51.517Z,101170.97
2023-04-25T07:57:24.444Z,101177.53
2023-04-25T07:59:57.447Z,101174.47
2023-04-25T08:02:24.315Z,101184.97
2023-04-25T08:04:57.580Z,101185.25
2023-04-25T08:07:30.677Z,101192.19
2023-04-25T08:10:03.474Z,101189.69
2023-04-25T08:12:36.452Z,101192.13
2023-04-25T08:15:05.051Z,101183.91
2023-04-25T08:17:38.465Z,101198.16
2023-04-25T08:20:07.034Z,101206.28
2023-04-25T08:22:41.865Z,101201.59
2023-04-25T08:25:09.184Z,101206.81
2023-04-25T08:27:42.458Z,101194.28
2023-04-25T08:30:10.040Z,101197.28
2023-04-25T08:32:45.432Z,101209.59
2023-04-25T08:35:12.486Z,101210.44
2023-04-25T08:37:46.553Z,101225.78
2023-04-25T08:40:16.104Z,101231.09
2023-04-25T08:42:50.516Z,101209.09
2023-04-25T08:45:17.439Z,101220.63
2023-04-25T08:47:53.511Z,101203.06
2023-04-25T08:50:23.569Z,101223.09
2023-04-25T08:53:00.560Z,101237.25
2023-04-25T08:55:34.500Z,101226.91
2023-04-25T08:58:08.505Z,101239.94
2023-04-25T09:00:42.742Z,101242.38
2023-04-25T09:03:10.062Z,101253.16
2023-04-25T09:05:47.158Z,101263.91
2023-04-25T09:08:20.890Z,101258.34
2023-04-25T09:10:54.509Z,101263.47
2023-04-25T09:13:29.451Z,101253.88
2023-04-25T09:16:05.509Z,101276.47
2023-04-25T09:18:36.466Z,101267.28
2023-04-25T09:21:15.094Z,101260.91
2023-04-25T09:23:50.020Z,101270.06
2023-04-25T09:26:25.528Z,101265.88
2023-04-25T09:29:07.889Z,101274.50
2023-04-25T09:31:41.672Z,101256.19
2023-04-25T09:34:08.581Z,101254.47
2023-04-25T09:36:42.458Z,101277.28
2023-04-25T09:39:23.479Z,101275.41
2023-04-25T09:42:01.581Z,101306.81
2023-04-25T09:44:28.526Z,101346.31
2023-04-25T09:46:55.443Z,101325.75
2023-04-25T09:49:29.843Z,101330.19
2023-04-25T09:51:58.355Z,101340.97
2023-04-25T09:54:32.582Z,101324.06
2023-04-25T09:57:12.316Z,101340.56
2023-04-25T09:59:59.567Z,101333.38
2023-04-25T10:02:28.599Z,101334.59
2023-04-25T10:05:03.637Z,101335.50
2023-04-25T10:07:43.560Z,101339.28
2023-04-25T10:10:20.514Z,101339.28
2023-04-25T10:12:47.793Z,101331.09
2023-04-25T10:15:22.534Z,101339.13
2023-04-25T10:17:50.842Z,101338.94
2023-04-25T10:20:24.532Z,101329.03
2023-04-25T10:22:57.720Z,101332.56
2023-04-25T10:25:32.512Z,101332.03
2023-04-25T10:28:01.189Z,101326.38
2023-04-25T10:30:34.606Z,101327.97
2023-04-25T10:33:01.540Z,101330.94
2023-04-25T10:35:36.521Z,101321.97
2023-04-25T10:38:18.540Z,101316.88
2023-04-25T10:41:04.451Z,101321.34
2023-04-25T10:43:49.632Z,101330.84
2023-04-25T10:46:36.600Z,101325.50
2023-04-25T10:49:04.281Z,101330.03
2023-04-25T10:51:55.061Z,101329.03
2023-04-25T10:54:24.273Z,101317.09
2023-04-25T10:56:58.526Z,101332.59
2023-04-25T10:59:32.539Z,101332.47
2023-04-25T11:01:59.806Z,101339.81
2023-04-25T11:04:43.731Z,101335.53
2023-04-25T11:08:08.300Z,101350.09
2023-04-25T11:10:45.486Z,101345.97
2023-04-25T11:13:12.318Z,101349.84
2023-04-25T11:15:45.496Z,101352.97
2023-04-25T11:18:23.570Z,101356.13
2023-04-25T11:20:57.596Z,101346.75
2023-04-25T11:23:30.677Z,101348.41
2023-04-25T11:26:04.619Z,101359.50
2023-04-25T11:28:31.735Z,101357.16
2023-04-25T11:31:05.642Z,101358.28
2023-04-25T11:33:32.491Z,101349.03
2023-04-25T11:36:05.589Z,101355.47
2023-04-25T11:38:38.570Z,101348.13
2023-04-25T11:41:05.440Z,101343.75
2023-04-25T11:43:38.547Z,101339.75
2023-04-25T11:46:09.402Z,101347.34
2023-04-25T11:48:51.637Z,101344.22
2023-04-25T11:51:18.913Z,101356.88
2023-04-25T11:53:52.524Z,101379.41
2023-04-25T11:56:19.341Z,101380.00
2023-04-25T11:59:11.149Z,101384.97
2023-04-25T12:01:48.867Z,101396.66
2023-04-25T12:04:24.104Z,101403.63
2023-04-25T12:07:04.868Z,101394.91
2023-04-25T12:09:40.747Z,101380.16
2023-04-25T12:12:17.524Z,101397.88
2023-04-25T12:14:49.510Z,101407.94
2023-04-25T12:17:24.620Z,101402.13
2023-04-25T12:19:58.628Z,101404.94
2023-04-25T12:22:32.566Z,101397.59
2023-04-25T12:25:06.571Z,101398.81
2023-04-25T12:27:33.400Z,101400.00
2023-04-25T12:30:06.619Z,101399.47
2023-04-25T12:32:39.576Z,101382.47
2023-04-25T12:35:07.822Z,101388.00
2023-04-25T12:37:41.861Z,101392.59
2023-04-25T12:40:10.067Z,101394.91
2023-04-25T12:42:43.559Z,101394.16
2023-04-25T12:45:16.846Z,101398.78
2023-04-25T12:47:50.617Z,101391.63
2023-04-25T12:50:23.600Z,101390.41
2023-04-25T12:52:56.612Z,101382.91
2023-04-25T12:55:29.709Z,101398.63
2023-04-25T12:57:56.483Z,101405.44
2023-04-25T13:00:29.683Z,101416.31
2023-04-25T13:02:56.765Z,101408.53
2023-04-25T13:05:30.619Z,101412.28
2023-04-25T13:08:04.307Z,101410.03
2023-04-25T13:10:37.548Z,101410.38
2023-04-25T13:13:10.775Z,101422.72
2023-04-25T13:15:44.573Z,101418.25
2023-04-25T13:18:17.744Z,101416.75
2023-04-25T13:20:44.533Z,101423.59
2023-04-25T13:23:17.652Z,101421.41
2023-04-25T13:25:51.308Z,101429.09
2023-04-25T13:28:24.622Z,101427.06
2023-04-25T13:30:52.998Z,101430.00
2023-04-25T13:33:27.652Z,101427.69
2023-04-25T13:35:58.489Z,101426.00
2023-04-25T13:38:33.768Z,101418.09
2023-04-25T13:41:00.756Z,101425.94
2023-04-25T13:43:33.738Z,101426.13
2023-04-25T13:46:00.757Z,101435.50
2023-04-25T13:48:34.620Z,101439.91
2023-04-25T13:51:01.434Z,101440.31
2023-04-25T13:53:34.646Z,101442.72
2023-04-25T13:56:01.591Z,101453.91
2023-04-25T13:58:34.579Z,101448.41
2023-04-25T14:01:01.457Z,101440.84
2023-04-25T14:03:28.410Z,101432.44
2023-04-25T14:06:01.711Z,101435.59
2023-04-25T14:08:35.025Z,101450.94
2023-04-25T14:11:08.757Z,101439.53
2023-04-25T14:13:35.939Z,101446.56
2023-04-25T14:16:09.672Z,101441.13
2023-04-25T14:18:36.772Z,101440.75
2023-04-25T14:21:03.732Z,101448.63
2023-04-25T14:23:36.640Z,101442.16
2023-04-25T14:26:03.581Z,101438.78
2023-04-25T14:28:36.607Z,101445.50
2023-04-25T14:31:03.392Z,101432.50
2023-04-25T14:33:36.620Z,101449.03
2023-04-25T14:36:03.629Z,101452.72
2023-04-25T14:38:36.611Z,101449.03
2023-04-25T14:41:09.635Z,101448.53
2023-04-25T14:43:44.619Z,101460.22
2023-04-25T14:46:12.244Z,101462.13
2023-04-25T14:48:46.973Z,101472.34
2023-04-25T14:51:14.021Z,101471.00
2023-04-25T14:53:48.698Z,101472.53
2023-04-25T14:56:15.608Z,101486.16
2023-04-25T14:58:48.644Z,101518.09
2023-04-25T15:01:22.789Z,101529.41
2023-04-25T15:03:49.716Z,101526.03
2023-04-25T15:06:22.703Z,101534.41
2023-04-25T15:08:55.850Z,101518.31
2023-04-25T15:11:29.661Z,101510.72
2023-04-25T15:13:56.465Z,101515.41
2023-04-25T15:16:29.743Z,101508.06
2023-04-25T15:18:56.574Z,101499.75
2023-04-25T15:21:29.709Z,101506.34
2023-04-25T15:24:03.109Z,101508.28
2023-04-25T15:26:36.685Z,101503.13
2023-04-25T15:29:11.823Z,101504.34
2023-04-25T15:31:45.755Z,101502.81
2023-04-25T15:34:12.562Z,101503.44
2023-04-25T15:36:45.674Z,101505.34
2023-04-25T15:39:12.727Z,101501.19
2023-04-25T15:41:39.567Z,101507.31
2023-04-25T15:44:14.706Z,101501.44
2023-04-25T15:46:41.864Z,101498.59
2023-04-25T15:49:15.647Z,101505.88
2023-04-25T15:51:42.493Z,101502.50
2023-04-25T15:54:15.615Z,101497.72
2023-04-25T15:56:42.346Z,101495.84
2023-04-25T15:59:15.720Z,101499.19
2023-04-25T16:01:42.742Z,101505.75
2023-04-25T16:04:16.700Z,101510.97
2023-04-25T16:06:50.671Z,101504.94
2023-04-25T16:09:23.792Z,101508.94
2023-04-25T16:11:57.720Z,101512.94
2023-04-25T16:14:30.700Z,101508.75
2023-04-25T16:17:03.663Z,101513.88
2023-04-25T16:19:30.452Z,101524.22
2023-04-25T16:22:03.654Z,101530.88
2023-04-25T16:24:30.489Z,101529.44
2023-04-25T16:27:04.692Z,101517.59
2023-04-25T16:29:44.695Z,101525.34
2023-04-25T16:32:17.663Z,101525.28
2023-04-25T16:34:44.957Z,101532.31
2023-04-25T16:37:18.712Z,101537.56
2023-04-25T16:39:46.177Z,101526.66
2023-04-25T16:42:19.826Z,101532.56
2023-04-25T16:44:46.907Z,101528.47
2023-04-25T16:47:20.789Z,101536.41
2023-04-25T16:49:54.904Z,101529.44
2023-04-25T16:52:23.982Z,101538.56
2023-04-25T16:54:57.690Z,101545.13
2023-04-25T16:57:24.501Z,101543.03
2023-04-25T16:59:58.681Z,101536.66
2023-04-25T17:02:25.543Z,101544.06
2023-04-25T17:04:59.739Z,101538.94
2023-04-25T17:07:33.204Z,101556.78
2023-04-25T17:10:06.673Z,101571.00
2023-04-25T17:12:33.894Z,101580.41
2023-04-25T17:15:07.690Z,101566.59
2023-04-25T17:17:34.575Z,101577.66
2023-04-25T17:20:01.530Z,101568.34
2023-04-25T17:22:34.749Z,101568.13
2023-04-25T17:25:01.569Z,101577.97
2023-04-25T17:27:34.807Z,101582.31
2023-04-25T17:30:02.703Z,101585.72
2023-04-25T17:32:36.752Z,101593.41
2023-04-25T17:35:04.297Z,101586.84
2023-04-25T17:37:37.737Z,101581.44
2023-04-25T17:40:05.332Z,101588.78
2023-04-25T17:42:38.804Z,101594.72
2023-04-25T17:45:06.772Z,101594.13
2023-04-25T17:47:40.797Z,101603.84
2023-04-25T17:50:08.957Z,101589.28
2023-04-25T17:52:42.662Z,101595.91
2023-04-25T17:55:15.741Z,101602.06
2023-04-25T17:57:42.508Z,101607.44
2023-04-25T18:00:16.730Z,101602.16
2023-04-25T18:02:45.642Z,101610.78
2023-04-25T18:05:19.112Z,101616.88
2023-04-25T18:08:06.798Z,101612.19
2023-04-25T18:10:40.812Z,101616.44
2023-04-25T18:13:09.367Z,101633.03
2023-04-25T18:15:42.765Z,101630.25
2023-04-25T18:18:15.575Z,101629.22
2023-04-25T18:20:50.653Z,101626.47
2023-04-25T18:23:17.783Z,101630.94
2023-04-25T18:25:53.250Z,101631.56
2023-04-25T18:28:26.745Z,101633.53
2023-04-25T18:30:54.616Z,101640.44
2023-04-25T18:33:30.774Z,101615.69
2023-04-25T18:36:01.166Z,101635.84
2023-04-25T18:38:36.249Z,101629.16
2023-04-25T18:41:21.061Z,101633.84
2023-04-25T18:44:05.729Z,101630.81
2023-04-25T18:46:33.178Z,101629.56
2023-04-25T18:49:07.797Z,101651.75
2023-04-25T18:51:34.610Z,101647.78
2023-04-25T18:54:08.802Z,101644.75
2023-04-25T18:56:36.018Z,101651.19
2023-04-25T18:59:09.775Z,101651.72
2023-04-25T19:01:37.407Z,101655.28
2023-04-25T19:04:11.061Z,101663.47
2023-04-25T19:06:58.159Z,101664.59
2023-04-25T19:09:31.778Z,101654.34
2023-04-25T19:11:58.623Z,101666.72
2023-04-25T19:14:32.893Z,101678.53
2023-04-25T19:17:00.467Z,101667.47
2023-04-25T19:19:33.787Z,101678.19
2023-04-25T19:22:01.076Z,101673.19
2023-04-25T19:24:28.088Z,101679.69
2023-04-25T19:27:01.793Z,101686.03
2023-04-25T19:29:30.376Z,101673.53
2023-04-25T19:32:05.774Z,101679.59
2023-04-25T19:34:32.532Z,101688.38
2023-04-25T19:37:05.709Z,101692.16
2023-04-25T19:39:32.640Z,101680.28
2023-04-25T19:42:07.792Z,101683.25
2023-04-25T19:44:34.582Z,101668.09
2023-04-25T19:47:08.952Z,101672.75
2023-04-25T19:49:42.811Z,101673.97
2023-04-25T19:52:21.831Z,101693.53
2023-04-25T19:54:54.714Z,101689.56
2023-04-25T19:57:21.575Z,101685.59
2023-04-25T19:59:56.813Z,101693.72
2023-04-25T20:02:26.796Z,101689.50
2023-04-25T20:05:00.856Z,101681.00
2023-04-25T20:07:47.799Z,101693.31
2023-04-25T20:10:22.865Z,101679.69
2023-04-25T20:12:56.833Z,101694.50
2023-04-25T20:15:23.730Z,101699.94
2023-04-25T20:18:12.864Z,101697.94
2023-04-25T20:20:52.788Z,101708.44
2023-04-25T20:23:19.929Z,101703.06
2023-04-25T20:25:55.885Z,101711.66
2023-04-25T20:28:35.952Z,101696.63
2023-04-25T20:31:03.251Z,101686.00
2023-04-25T20:33:36.887Z,101700.41
2023-04-25T20:36:09.813Z,101702.19
2023-04-25T20:38:42.800Z,101704.69
2023-04-25T20:41:18.914Z,101696.97
2023-04-25T20:43:52.934Z,101704.81
2023-04-25T20:46:20.416Z,101697.22
2023-04-25T20:48:47.572Z,101685.09
2023-04-25T20:51:20.821Z,101698.88
2023-04-25T20:53:47.716Z,101702.38
2023-04-25T20:56:20.823Z,101712.75
2023-04-25T20:58:47.718Z,101705.78
2023-04-25T21:01:23.078Z,101714.72
2023-04-25T21:03:52.009Z,101704.34
2023-04-25T21:06:25.809Z,101696.94
2023-04-25T21:08:59.247Z,101710.78
2023-04-25T21:11:32.891Z,101704.75
2023-04-25T21:13:59.829Z,101698.91
2023-04-25T21:16:34.960Z,101711.97
2023-04-25T21:19:02.624Z,101701.00
2023-04-25T21:21:35.926Z,101714.16
2023-04-25T21:24:02.802Z,101720.31
2023-04-25T21:26:29.567Z,101700.75
2023-04-25T21:29:02.807Z,101713.72
2023-04-25T21:31:29.789Z,101713.19
2023-04-25T21:34:02.827Z,101724.63
2023-04-25T21:36:29.696Z,101714.38
2023-04-25T21:39:05.837Z,101708.63
2023-04-25T21:41:39.858Z,101719.19
2023-04-25T21:44:13.885Z,101716.09
2023-04-25T21:46:47.935Z,101721.34
2023-04-25T21:49:14.761Z,101712.19
2023-04-25T21:51:48.797Z,101695.22
2023-04-25T21:54:21.881Z,101696.28
2023-04-25T21:56:54.854Z,101721.38
2023-04-25T21:59:30.872Z,101738.06
2023-04-25T22:01:57.902Z,101735.66
2023-04-25T22:04:30.989Z,101732.19
2023-04-25T22:07:04.886Z,101735.97
2023-04-25T22:09:54.526Z,101734.44
2023-04-25T22:12:29.841Z,101747.53
2023-04-25T22:14:56.916Z,101740.78
2023-04-25T22:17:33.871Z,101732.19
2023-04-25T22:20:01.725Z,101747.91
2023-04-25T22:22:34.922Z,101749.63
2023-04-25T22:25:10.119Z,101742.91
2023-04-25T22:27:50.999Z,101734.47
2023-04-25T22:30:18.618Z,101743.00
2023-04-25T22:32:51.945Z,101741.28
2023-04-25T22:35:19.596Z,101744.09
2023-04-25T22:37:52.947Z,101745.88
2023-04-25T22:40:19.866Z,101755.47
2023-04-25T22:42:46.966Z,101751.94
2023-04-25T22:45:21.903Z,101752.09
2023-04-25T22:47:54.864Z,101758.09
2023-04-25T22:50:28.951Z,101766.88
2023-04-25T22:52:56.192Z,101753.13
2023-04-25T22:55:29.851Z,101757.59
2023-04-25T22:57:56.673Z,101773.22
2023-04-25T23:00:32.868Z,101775.78
2023-04-25T23:03:00.002Z,101764.56
2023-04-25T23:05:33.857Z,101771.56
2023-04-25T23:08:06.901Z,101775.97
2023-04-25T23:10:39.892Z,101772.53
2023-04-25T23:13:06.732Z,101771.66
2023-04-25T23:15:39.865Z,101749.34
2023-04-25T23:18:06.796Z,101752.84
2023-04-25T23:20:40.828Z,101770.09
2023-04-25T23:23:07.857Z,101767.63
2023-04-25T23:25:47.125Z,101770.38
2023-04-25T23:28:20.863Z,101753.97
2023-04-25T23:30:53.917Z,101774.78
2023-04-25T23:33:26.911Z,101755.03
2023-04-25T23:35:53.898Z,101769.72
2023-04-25T23:38:27.900Z,101769.06
2023-04-25T23:40:54.723Z,101781.22
2023-04-25T23:43:27.872Z,101767.34
2023-04-25T23:45:55.546Z,101767.38
2023-04-25T23:48:29.885Z,101770.13
2023-04-25T23:50:56.923Z,101766.94
2023-04-25T23:53:30.840Z,101764.41
2023-04-25T23:55:57.742Z,101770.78
2023-04-25T23:58:31.026Z,101757.84
